createdAt,value
2018-08-28T00:00:35.547Z,47.30
2018-08-28T00:01:39.595Z,47.40
2018-08-28T00:02:43.700Z,47.40
2018-08-28T00:03:47.742Z,47.50
2018-08-28T00:04:51.913Z,47.40
2018-08-28T00:05:55.997Z,47.50
2018-08-28T00:07:00.081Z,47.60
2018-08-28T00:08:04.145Z,47.60
2018-08-28T00:09:08.186Z,47.70
2018-08-28T00:10:12.257Z,47.60
2018-08-28T00:11:16.495Z,47.80
2018-08-28T00:12:20.552Z,47.90
2018-08-28T00:13:24.600Z,47.90
2018-08-28T00:14:28.713Z,47.90
2018-08-28T00:15:33.324Z,47.90
2018-08-28T00:16:37.355Z,48.00
2018-08-28T00:17:41.448Z,48.00
2018-08-28T00:18:45.481Z,48.20
2018-08-28T00:19:49.499Z,48.40
2018-08-28T00:20:53.742Z,48.50
2018-08-28T00:21:57.806Z,48.60
2018-08-28T00:23:01.880Z,48.60
2018-08-28T00:24:05.928Z,48.70
2018-08-28T00:25:09.954Z,48.80
2018-08-28T00:26:14.030Z,48.90
2018-08-28T00:27:18.158Z,48.90
2018-08-28T00:28:22.176Z,49.00
2018-08-28T00:29:26.251Z,49.00
2018-08-28T00:30:30.313Z,49.10
2018-08-28T00:31:34.368Z,49.20
2018-08-28T00:32:38.425Z,49.30
2018-08-28T00:33:42.511Z,49.20
2018-08-28T00:34:46.580Z,49.20
2018-08-28T00:35:50.675Z,49.30
2018-08-28T00:36:54.713Z,49.20
2018-08-28T00:37:58.767Z,49.30
2018-08-28T00:39:02.908Z,49.40
2018-08-28T00:40:07.084Z,49.50
2018-08-28T00:41:11.409Z,49.50
2018-08-28T00:42:15.421Z,49.50
2018-08-28T00:43:19.440Z,49.50
2018-08-28T00:44:23.480Z,49.50
2018-08-28T00:45:27.544Z,49.50
2018-08-28T00:46:31.823Z,49.60
2018-08-28T00:47:35.971Z,49.60
2018-08-28T00:48:39.944Z,49.70
2018-08-28T00:49:44.029Z,49.70
2018-08-28T00:50:48.174Z,49.70
2018-08-28T00:51:52.249Z,49.80
2018-08-28T00:52:56.336Z,49.80
2018-08-28T00:54:00.435Z,49.80
2018-08-28T00:55:04.521Z,49.80
2018-08-28T00:56:08.852Z,49.80
2018-08-28T00:57:12.919Z,49.90
2018-08-28T00:58:16.983Z,50.00
2018-08-28T00:59:21.479Z,50.00
2018-08-28T01:00:25.616Z,50.00
2018-08-28T01:01:29.682Z,50.20
2018-08-28T01:02:33.994Z,50.20
2018-08-28T01:03:38.043Z,50.90
2018-08-28T01:04:42.059Z,50.30
2018-08-28T01:05:46.502Z,50.40
2018-08-28T01:06:50.768Z,50.40
2018-08-28T01:07:54.814Z,50.50
2018-08-28T01:08:59.015Z,50.50
2018-08-28T01:10:03.081Z,50.50
2018-08-28T01:11:07.472Z,50.60
2018-08-28T01:12:11.613Z,50.70
2018-08-28T01:13:15.666Z,50.70
2018-08-28T01:14:19.690Z,50.80
2018-08-28T01:15:23.878Z,50.90
2018-08-28T01:16:27.956Z,50.90
2018-08-28T01:17:31.983Z,51.00
2018-08-28T01:18:36.488Z,51.10
2018-08-28T01:19:40.602Z,51.00
2018-08-28T01:20:44.624Z,51.00
2018-08-28T01:21:49.001Z,51.10
2018-08-28T01:22:53.117Z,51.10
2018-08-28T01:23:57.507Z,51.20
2018-08-28T01:25:01.548Z,51.20
2018-08-28T01:26:06.424Z,51.20
2018-08-28T01:27:10.797Z,51.20
2018-08-28T01:28:14.829Z,51.30
2018-08-28T01:29:18.881Z,51.30
2018-08-28T01:30:28.378Z,51.40
2018-08-28T01:31:32.770Z,51.40
2018-08-28T01:34:09.838Z,51.60
2018-08-28T01:35:14.006Z,51.40
2018-08-28T01:36:18.550Z,51.60
2018-08-28T01:37:22.623Z,51.80
2018-08-28T01:38:26.879Z,51.80
2018-08-28T01:39:30.926Z,52.60
2018-08-28T01:40:35.142Z,52.10
2018-08-28T01:41:39.180Z,52.10
2018-08-28T01:42:43.216Z,52.10
2018-08-28T01:43:47.274Z,52.10
2018-08-28T01:44:51.428Z,52.10
2018-08-28T01:45:55.458Z,52.20
2018-08-28T01:46:59.718Z,52.30
2018-08-28T01:48:03.784Z,52.20
2018-08-28T01:49:07.865Z,52.30
2018-08-28T01:50:11.994Z,52.30
2018-08-28T01:51:16.068Z,52.40
2018-08-28T01:52:20.631Z,52.50
2018-08-28T01:53:24.780Z,52.60
2018-08-28T01:54:28.835Z,52.90
2018-08-28T01:55:33.109Z,52.80
2018-08-28T01:56:37.188Z,52.90
2018-08-28T01:57:41.232Z,52.90
2018-08-28T01:58:45.263Z,52.90
2018-08-28T01:59:49.300Z,53.30
2018-08-28T02:00:53.353Z,52.90
2018-08-28T02:01:57.401Z,53.00
2018-08-28T02:03:01.562Z,53.10
2018-08-28T02:04:05.776Z,53.00
2018-08-28T02:05:09.919Z,53.00
2018-08-28T02:06:13.959Z,53.20
2018-08-28T02:07:18.096Z,53.40
2018-08-28T02:08:22.098Z,53.30
2018-08-28T02:09:26.137Z,53.40
2018-08-28T02:10:30.694Z,53.30
2018-08-28T02:11:34.729Z,53.30
2018-08-28T02:12:38.829Z,53.50
2018-08-28T02:13:42.929Z,53.50
2018-08-28T02:14:46.972Z,53.60
2018-08-28T02:15:51.046Z,53.60
2018-08-28T02:16:55.094Z,53.60
2018-08-28T02:17:59.214Z,53.50
2018-08-28T02:19:03.477Z,53.70
2018-08-28T02:20:08.362Z,53.80
2018-08-28T02:21:12.401Z,53.80
2018-08-28T02:22:16.752Z,53.90
2018-08-28T02:23:20.811Z,53.90
2018-08-28T02:24:24.844Z,54.60
2018-08-28T02:25:29.188Z,54.00
2018-08-28T02:26:33.269Z,54.00
2018-08-28T02:27:37.460Z,53.90
2018-08-28T02:28:41.837Z,54.00
2018-08-28T02:29:49.077Z,54.10
2018-08-28T02:30:59.529Z,54.00
2018-08-28T02:32:03.541Z,54.10
2018-08-28T02:33:07.592Z,54.00
2018-08-28T02:34:11.827Z,54.10
2018-08-28T02:35:15.820Z,54.10
2018-08-28T02:36:19.843Z,54.10
2018-08-28T02:37:23.891Z,54.30
2018-08-28T02:38:28.011Z,54.30
2018-08-28T02:39:32.057Z,54.30
2018-08-28T02:40:36.202Z,54.40
2018-08-28T02:41:40.810Z,54.40
2018-08-28T02:42:44.860Z,54.50
2018-08-28T02:43:49.044Z,54.70
2018-08-28T02:44:53.154Z,54.60
2018-08-28T02:45:57.206Z,55.20
2018-08-28T02:47:01.366Z,54.70
2018-08-28T02:48:05.446Z,54.70
2018-08-28T02:49:09.502Z,54.80
2018-08-28T02:50:14.151Z,54.90
2018-08-28T02:51:18.336Z,54.90
2018-08-28T02:52:22.375Z,54.90
2018-08-28T02:53:26.408Z,55.00
2018-08-28T02:54:31.955Z,55.10
2018-08-28T02:55:36.010Z,55.00
2018-08-28T02:56:40.236Z,55.20
2018-08-28T02:57:44.277Z,55.20
2018-08-28T02:58:48.321Z,55.30
2018-08-28T02:59:52.344Z,55.20
2018-08-28T03:00:56.405Z,55.30
2018-08-28T03:02:00.459Z,55.30
2018-08-28T03:03:04.626Z,55.40
2018-08-28T03:04:08.599Z,55.40
2018-08-28T03:05:12.612Z,55.60
2018-08-28T03:06:16.754Z,55.50
2018-08-28T03:07:20.800Z,55.50
2018-08-28T03:08:25.060Z,55.50
2018-08-28T03:09:29.370Z,55.50
2018-08-28T03:10:33.417Z,55.60
2018-08-28T03:11:37.690Z,55.60
2018-08-28T03:12:41.711Z,55.70
2018-08-28T03:13:45.818Z,55.80
2018-08-28T03:14:50.326Z,55.80
2018-08-28T03:15:54.479Z,55.90
2018-08-28T03:16:58.502Z,56.00
2018-08-28T03:18:02.872Z,56.00
2018-08-28T03:19:06.979Z,56.00
2018-08-28T03:20:11.113Z,56.20
2018-08-28T03:21:15.314Z,56.20
2018-08-28T03:22:19.344Z,56.20
2018-08-28T03:23:23.652Z,56.20
2018-08-28T03:24:27.721Z,56.20
2018-08-28T03:25:31.769Z,56.30
2018-08-28T03:26:35.799Z,56.30
2018-08-28T03:27:39.868Z,56.30
2018-08-28T03:28:43.976Z,56.40
2018-08-28T03:29:48.018Z,56.40
2018-08-28T03:30:52.063Z,56.60
2018-08-28T03:31:56.481Z,56.80
2018-08-28T03:33:00.640Z,56.80
2018-08-28T03:34:04.691Z,57.00
2018-08-28T03:35:08.965Z,57.00
2018-08-28T03:36:12.983Z,57.00
2018-08-28T03:37:17.043Z,57.10
2018-08-28T03:38:21.199Z,57.10
2018-08-28T03:39:25.365Z,57.10
2018-08-28T03:40:32.394Z,57.90
2018-08-28T03:41:36.518Z,57.30
2018-08-28T03:42:40.871Z,57.20
2018-08-28T03:43:44.940Z,57.20
2018-08-28T03:44:49.036Z,57.30
2018-08-28T03:45:53.075Z,57.50
2018-08-28T03:46:57.124Z,57.30
2018-08-28T03:48:01.148Z,57.30
2018-08-28T03:49:05.530Z,57.40
2018-08-28T03:50:09.380Z,57.50
2018-08-28T03:51:13.572Z,57.60
2018-08-28T03:52:17.619Z,57.70
2018-08-28T03:53:21.897Z,57.70
2018-08-28T03:54:25.972Z,57.70
2018-08-28T03:55:30.409Z,57.90
2018-08-28T03:56:34.444Z,57.80
2018-08-28T03:57:38.464Z,57.90
2018-08-28T03:58:42.796Z,58.00
2018-08-28T03:59:47.091Z,58.00
2018-08-28T04:00:51.138Z,58.00
2018-08-28T04:01:55.409Z,58.20
2018-08-28T04:02:59.588Z,58.20
2018-08-28T04:04:03.655Z,58.80
2018-08-28T04:05:08.143Z,58.20
2018-08-28T04:06:13.004Z,58.20
2018-08-28T04:07:17.144Z,58.30
2018-08-28T04:08:21.594Z,58.40
2018-08-28T04:09:25.665Z,58.40
2018-08-28T04:10:29.718Z,58.50
2018-08-28T04:11:33.934Z,58.60
2018-08-28T04:12:38.072Z,58.70
2018-08-28T04:13:42.190Z,58.50
2018-08-28T04:14:46.624Z,58.60
2018-08-28T04:15:50.714Z,58.60
2018-08-28T04:16:54.820Z,58.60
2018-08-28T04:17:58.834Z,58.60
2018-08-28T04:19:03.233Z,58.70
2018-08-28T04:20:07.304Z,58.70
2018-08-28T04:21:11.806Z,58.70
2018-08-28T04:22:15.857Z,58.80
2018-08-28T04:23:19.923Z,58.80
2018-08-28T04:24:23.959Z,58.80
2018-08-28T04:25:28.164Z,58.80
2018-08-28T04:26:32.196Z,59.00
2018-08-28T04:27:36.271Z,59.10
2018-08-28T04:28:40.377Z,59.70
2018-08-28T04:29:44.436Z,59.10
2018-08-28T04:30:48.488Z,59.50
2018-08-28T04:31:52.518Z,59.70
2018-08-28T04:32:56.595Z,59.20
2018-08-28T04:34:00.664Z,59.20
2018-08-28T04:35:04.969Z,59.90
2018-08-28T04:36:09.028Z,59.40
2018-08-28T04:37:13.479Z,59.40
2018-08-28T04:38:17.528Z,59.70
2018-08-28T04:39:21.595Z,59.70
2018-08-28T04:40:25.631Z,59.90
2018-08-28T04:41:29.692Z,59.90
2018-08-28T04:42:33.724Z,60.00
2018-08-28T04:43:37.772Z,59.90
2018-08-28T04:44:41.818Z,60.00
2018-08-28T04:45:45.866Z,60.20
2018-08-28T04:46:49.871Z,60.20
2018-08-28T04:47:53.931Z,60.20
2018-08-28T04:48:58.054Z,60.20
2018-08-28T04:50:02.080Z,60.40
2018-08-28T04:51:06.312Z,60.40
2018-08-28T04:52:13.499Z,60.40
2018-08-28T04:53:17.605Z,60.60
2018-08-28T04:54:22.025Z,60.50
2018-08-28T04:55:26.047Z,60.60
2018-08-28T04:56:30.086Z,60.60
2018-08-28T04:57:34.643Z,60.60
2018-08-28T04:58:38.714Z,60.90
2018-08-28T04:59:43.152Z,61.10
2018-08-28T05:00:47.544Z,60.90
2018-08-28T05:01:51.600Z,60.90
2018-08-28T05:02:55.639Z,60.90
2018-08-28T05:03:59.717Z,60.80
2018-08-28T05:05:05.214Z,60.90
2018-08-28T05:06:09.385Z,60.90
2018-08-28T05:07:13.442Z,61.00
2018-08-28T05:08:17.489Z,60.90
2018-08-28T05:09:22.405Z,60.70
2018-08-28T05:10:26.495Z,60.90
2018-08-28T05:11:30.569Z,61.00
2018-08-28T05:12:34.663Z,61.00
2018-08-28T05:13:38.696Z,60.90
2018-08-28T05:14:42.756Z,60.90
2018-08-28T05:15:46.805Z,61.00
2018-08-28T05:16:50.879Z,61.00
2018-08-28T05:17:54.915Z,61.00
2018-08-28T05:18:59.010Z,61.00
2018-08-28T05:20:03.136Z,61.20
2018-08-28T05:21:07.145Z,61.20
2018-08-28T05:22:11.177Z,61.10
2018-08-28T05:23:15.250Z,61.20
2018-08-28T05:24:19.268Z,62.10
2018-08-28T05:25:23.337Z,61.30
2018-08-28T05:26:27.424Z,61.40
2018-08-28T05:27:31.442Z,61.40
2018-08-28T05:28:35.465Z,61.40
2018-08-28T05:29:39.783Z,61.50
2018-08-28T05:30:43.885Z,61.60
2018-08-28T05:31:47.887Z,61.50
2018-08-28T05:32:51.914Z,61.50
2018-08-28T05:33:55.957Z,61.60
2018-08-28T05:35:00.005Z,61.50
2018-08-28T05:36:04.116Z,61.40
2018-08-28T05:37:08.303Z,62.30
2018-08-28T05:38:12.376Z,61.30
2018-08-28T05:39:16.410Z,61.30
2018-08-28T05:40:20.448Z,61.40
2018-08-28T05:41:24.615Z,61.60
2018-08-28T05:42:28.675Z,61.70
2018-08-28T05:43:32.675Z,61.80
2018-08-28T05:44:36.913Z,61.80
2018-08-28T05:45:40.968Z,62.60
2018-08-28T05:46:45.231Z,61.90
2018-08-28T05:47:49.359Z,62.10
2018-08-28T05:48:53.580Z,62.00
2018-08-28T05:49:57.962Z,62.10
2018-08-28T05:51:02.258Z,62.10
2018-08-28T05:52:06.333Z,62.10
2018-08-28T05:53:10.411Z,62.20
2018-08-28T05:54:14.527Z,61.90
2018-08-28T05:55:18.656Z,62.20
2018-08-28T05:56:22.740Z,62.20
2018-08-28T05:57:27.075Z,62.20
2018-08-28T05:58:31.192Z,62.10
2018-08-28T05:59:35.248Z,62.20
2018-08-28T06:00:39.390Z,62.20
2018-08-28T06:01:43.501Z,62.20
2018-08-28T06:02:47.593Z,62.40
2018-08-28T06:03:51.711Z,62.60
2018-08-28T06:04:55.734Z,62.30
2018-08-28T06:05:59.902Z,62.20
2018-08-28T06:07:04.082Z,62.10
2018-08-28T06:08:08.494Z,61.90
2018-08-28T06:09:12.744Z,61.80
2018-08-28T06:10:16.854Z,61.90
2018-08-28T06:11:21.311Z,62.10
2018-08-28T06:12:25.372Z,61.90
2018-08-28T06:13:29.466Z,62.00
2018-08-28T06:14:33.606Z,62.80
2018-08-28T06:15:37.662Z,61.90
2018-08-28T06:16:41.794Z,62.10
2018-08-28T06:17:45.915Z,62.00
2018-08-28T06:18:50.060Z,62.00
2018-08-28T06:19:54.091Z,61.90
2018-08-28T06:20:58.135Z,61.80
2018-08-28T06:22:02.517Z,61.70
2018-08-28T06:23:06.585Z,61.50
2018-08-28T06:24:10.636Z,61.30
2018-08-28T06:25:14.698Z,61.30
2018-08-28T06:26:19.034Z,61.20
2018-08-28T06:27:23.132Z,61.20
2018-08-28T06:28:27.194Z,61.20
2018-08-28T06:29:31.202Z,61.00
2018-08-28T06:30:35.427Z,60.90
2018-08-28T06:31:39.446Z,60.90
2018-08-28T06:32:43.525Z,60.90
2018-08-28T06:33:47.569Z,61.00
2018-08-28T06:34:51.582Z,60.90
2018-08-28T06:35:55.672Z,60.70
2018-08-28T06:36:59.774Z,60.70
2018-08-28T06:38:04.026Z,61.40
2018-08-28T06:39:08.834Z,60.50
2018-08-28T06:40:12.872Z,60.60
2018-08-28T06:41:17.395Z,60.40
2018-08-28T06:42:21.446Z,60.50
2018-08-28T06:43:25.842Z,60.40
2018-08-28T06:44:29.835Z,60.20
2018-08-28T06:45:33.934Z,60.20
2018-08-28T06:46:38.388Z,60.10
2018-08-28T06:47:42.453Z,60.00
2018-08-28T06:48:46.544Z,60.00
2018-08-28T06:49:50.654Z,60.00
2018-08-28T06:50:54.702Z,60.00
2018-08-28T06:51:58.731Z,60.00
2018-08-28T06:53:02.775Z,60.00
2018-08-28T06:54:06.835Z,59.90
2018-08-28T06:55:10.885Z,59.80
2018-08-28T06:56:14.941Z,59.70
2018-08-28T06:57:18.983Z,59.60
2018-08-28T06:58:23.085Z,59.50
2018-08-28T06:59:27.634Z,60.10
2018-08-28T07:00:31.694Z,59.40
2018-08-28T07:01:35.889Z,59.40
2018-08-28T07:02:40.039Z,59.30
2018-08-28T07:03:44.083Z,59.20
2018-08-28T07:04:48.195Z,59.20
2018-08-28T07:05:52.256Z,59.20
2018-08-28T07:06:56.377Z,59.00
2018-08-28T07:08:00.451Z,59.10
2018-08-28T07:09:05.881Z,58.90
2018-08-28T07:10:10.027Z,58.80
2018-08-28T07:11:14.042Z,58.70
2018-08-28T07:12:18.246Z,58.70
2018-08-28T07:13:22.300Z,58.60
2018-08-28T07:14:26.427Z,58.50
2018-08-28T07:15:30.546Z,58.40
2018-08-28T07:16:34.635Z,58.30
2018-08-28T07:17:38.815Z,58.30
2018-08-28T07:18:42.915Z,58.20
2018-08-28T07:19:47.230Z,58.20
2018-08-28T07:20:52.273Z,58.20
2018-08-28T07:21:56.574Z,58.20
2018-08-28T07:23:00.675Z,58.10
2018-08-28T07:24:04.837Z,58.20
2018-08-28T07:25:08.880Z,58.20
2018-08-28T07:26:12.970Z,58.20
2018-08-28T07:27:17.026Z,58.20
2018-08-28T07:28:21.055Z,58.30
2018-08-28T07:29:25.177Z,58.40
2018-08-28T07:30:29.428Z,58.40
2018-08-28T07:31:33.544Z,58.40
2018-08-28T07:32:37.683Z,58.30
2018-08-28T07:33:41.895Z,58.40
2018-08-28T07:34:46.024Z,58.30
2018-08-28T07:35:50.228Z,59.00
2018-08-28T07:36:54.706Z,58.20
2018-08-28T07:37:58.778Z,58.00
2018-08-28T07:39:02.937Z,58.00
2018-08-28T07:40:06.999Z,58.00
2018-08-28T07:41:11.053Z,58.00
2018-08-28T07:42:15.089Z,57.90
2018-08-28T07:43:19.132Z,57.80
2018-08-28T07:44:23.969Z,57.70
2018-08-28T07:45:27.975Z,57.60
2018-08-28T07:46:32.076Z,58.20
2018-08-28T07:47:36.586Z,57.50
2018-08-28T07:48:40.675Z,57.50
2018-08-28T07:49:44.892Z,57.30
2018-08-28T07:50:49.057Z,57.20
2018-08-28T07:51:53.097Z,57.10
2018-08-28T07:52:57.162Z,57.00
2018-08-28T07:54:01.599Z,57.00
2018-08-28T07:55:05.837Z,57.00
2018-08-28T07:56:10.190Z,56.90
2018-08-28T07:57:14.983Z,56.90
2018-08-28T07:58:19.230Z,57.30
2018-08-28T07:59:23.727Z,56.60
2018-08-28T08:00:28.008Z,56.60
2018-08-28T08:01:32.399Z,56.50
2018-08-28T08:02:36.371Z,56.40
2018-08-28T08:03:40.397Z,56.30
2018-08-28T08:04:44.533Z,56.40
2018-08-28T08:05:48.551Z,56.50
2018-08-28T08:06:52.651Z,56.60
2018-08-28T08:07:56.702Z,56.40
2018-08-28T08:09:00.830Z,56.30
2018-08-28T08:10:05.447Z,56.20
2018-08-28T08:11:09.487Z,56.10
2018-08-28T08:12:13.492Z,56.00
2018-08-28T08:13:17.601Z,55.90
2018-08-28T08:14:21.856Z,55.90
2018-08-28T08:15:25.942Z,55.90
2018-08-28T08:16:29.996Z,55.90
2018-08-28T08:17:34.347Z,55.80
2018-08-28T08:18:38.392Z,55.80
2018-08-28T08:19:42.472Z,55.60
2018-08-28T08:20:46.521Z,55.60
2018-08-28T08:21:50.641Z,55.60
2018-08-28T08:22:55.004Z,55.50
2018-08-28T08:23:59.120Z,55.40
2018-08-28T08:25:03.197Z,55.40
2018-08-28T08:26:07.245Z,55.30
2018-08-28T08:27:11.337Z,55.40
2018-08-28T08:28:15.521Z,55.30
2018-08-28T08:29:19.722Z,55.30
2018-08-28T08:30:23.859Z,55.20
2018-08-28T08:31:27.940Z,55.10
2018-08-28T08:32:32.149Z,55.00
2018-08-28T08:33:36.299Z,54.90
2018-08-28T08:34:40.504Z,54.80
2018-08-28T08:35:44.583Z,54.70
2018-08-28T08:36:49.003Z,54.60
2018-08-28T08:37:53.033Z,54.50
2018-08-28T08:38:57.126Z,55.10
2018-08-28T08:40:01.449Z,54.20
2018-08-28T08:41:05.758Z,54.00
2018-08-28T08:42:10.111Z,53.90
2018-08-28T08:43:14.088Z,53.70
2018-08-28T08:44:18.215Z,53.60
2018-08-28T08:45:22.637Z,53.30
2018-08-28T08:46:26.759Z,53.10
2018-08-28T08:47:30.797Z,53.10
2018-08-28T08:48:34.848Z,52.90
2018-08-28T08:49:38.935Z,52.80
2018-08-28T08:50:43.043Z,52.10
2018-08-28T08:51:47.096Z,52.60
2018-08-28T08:52:51.204Z,52.50
2018-08-28T08:53:55.344Z,52.40
2018-08-28T08:54:59.427Z,52.10
2018-08-28T08:56:03.522Z,51.70
2018-08-28T08:57:07.582Z,51.50
2018-08-28T08:58:11.582Z,51.50
2018-08-28T08:59:15.634Z,51.30
2018-08-28T09:00:19.675Z,51.90
2018-08-28T09:01:23.770Z,51.10
2018-08-28T09:02:27.863Z,50.90
2018-08-28T09:03:32.416Z,50.90
2018-08-28T09:04:36.613Z,50.70
2018-08-28T09:05:40.886Z,50.70
2018-08-28T09:06:44.974Z,50.50
2018-08-28T09:07:49.431Z,50.40
2018-08-28T09:08:53.558Z,50.50
2018-08-28T09:09:57.842Z,50.30
2018-08-28T09:11:01.896Z,50.30
2018-08-28T09:12:06.082Z,50.30
2018-08-28T09:13:10.437Z,50.20
2018-08-28T09:14:15.279Z,50.20
2018-08-28T09:15:19.691Z,50.10
2018-08-28T09:16:23.731Z,50.30
2018-08-28T09:17:27.808Z,50.00
2018-08-28T09:18:31.867Z,49.90
2018-08-28T09:19:36.000Z,49.90
2018-08-28T09:20:40.062Z,49.90
2018-08-28T09:21:44.108Z,50.30
2018-08-28T09:22:48.139Z,49.50
2018-08-28T09:23:52.204Z,49.50
2018-08-28T09:24:56.208Z,49.40
2018-08-28T09:26:00.372Z,49.30
2018-08-28T09:27:04.475Z,49.10
2018-08-28T09:28:08.517Z,49.00
2018-08-28T09:29:12.568Z,48.60
2018-08-28T09:30:16.725Z,48.50
2018-08-28T09:31:20.877Z,48.40
2018-08-28T09:32:25.133Z,48.40
2018-08-28T09:33:29.083Z,48.30
2018-08-28T09:34:33.085Z,48.40
2018-08-28T09:35:37.230Z,48.20
2018-08-28T09:36:41.444Z,48.20
2018-08-28T09:37:45.531Z,48.00
2018-08-28T09:38:49.704Z,47.80
2018-08-28T09:39:53.959Z,47.70
2018-08-28T09:40:57.938Z,47.50
2018-08-28T09:42:02.000Z,47.20
2018-08-28T09:43:06.162Z,47.10
2018-08-28T09:44:10.604Z,46.80
2018-08-28T09:45:14.650Z,46.30
2018-08-28T09:46:18.693Z,46.20
2018-08-28T09:47:23.096Z,45.70
2018-08-28T09:48:27.260Z,46.10
2018-08-28T09:49:31.578Z,45.10
2018-08-28T09:50:35.699Z,44.50
2018-08-28T09:51:39.712Z,44.10
2018-08-28T09:52:43.748Z,43.70
2018-08-28T09:53:47.818Z,43.40
2018-08-28T09:54:52.155Z,43.10
2018-08-28T09:55:56.184Z,42.70
2018-08-28T09:57:00.257Z,42.30
2018-08-28T09:58:04.279Z,42.10
2018-08-28T09:59:08.386Z,41.70
2018-08-28T10:00:17.882Z,41.10
2018-08-28T10:01:27.227Z,41.60
2018-08-28T10:02:31.317Z,40.70
2018-08-28T10:03:35.670Z,40.50
2018-08-28T10:04:39.762Z,40.40
2018-08-28T10:05:43.905Z,40.50
2018-08-28T10:06:47.908Z,40.50
2018-08-28T10:07:52.023Z,40.40
2018-08-28T10:08:56.040Z,40.30
2018-08-28T10:10:00.075Z,40.10
2018-08-28T10:11:04.248Z,40.00
2018-08-28T10:12:08.204Z,39.90
2018-08-28T10:13:12.520Z,39.90
2018-08-28T10:14:16.623Z,39.80
2018-08-28T10:15:20.657Z,39.60
2018-08-28T10:16:24.926Z,39.60
2018-08-28T10:17:29.050Z,39.40
2018-08-28T10:18:33.040Z,39.30
2018-08-28T10:19:37.383Z,39.30
2018-08-28T10:20:41.478Z,39.20
2018-08-28T10:21:45.773Z,38.90
2018-08-28T10:22:50.251Z,38.80
2018-08-28T10:23:54.271Z,38.20
2018-08-28T10:24:58.503Z,37.90
2018-08-28T10:26:02.881Z,37.50
2018-08-28T10:27:07.018Z,37.10
2018-08-28T10:28:11.044Z,36.80
2018-08-28T10:29:15.506Z,36.80
2018-08-28T10:30:19.710Z,36.30
2018-08-28T10:31:23.912Z,36.20
2018-08-28T10:32:28.428Z,35.80
2018-08-28T10:33:32.513Z,35.60
2018-08-28T10:34:36.661Z,35.50
2018-08-28T10:35:40.966Z,35.30
2018-08-28T10:36:45.119Z,35.20
2018-08-28T10:37:49.262Z,35.20
2018-08-28T10:38:53.558Z,35.10
2018-08-28T10:39:57.746Z,35.10
2018-08-28T10:41:01.964Z,35.00
2018-08-28T10:42:06.391Z,35.00
2018-08-28T10:43:10.492Z,35.10
2018-08-28T10:44:21.112Z,35.00
2018-08-28T10:45:25.355Z,34.90
2018-08-28T10:46:29.884Z,34.70
2018-08-28T10:47:33.904Z,35.30
2018-08-28T10:48:38.025Z,34.30
2018-08-28T10:49:42.499Z,34.10
2018-08-28T10:50:46.812Z,33.90
2018-08-28T10:51:50.881Z,33.80
2018-08-28T10:52:55.220Z,33.90
2018-08-28T10:53:59.385Z,34.60
2018-08-28T10:55:03.715Z,33.90
2018-08-28T10:56:07.978Z,33.80
2018-08-28T10:57:12.152Z,33.80
2018-08-28T10:58:16.244Z,33.80
2018-08-28T10:59:20.714Z,33.60
2018-08-28T11:00:25.260Z,33.60
2018-08-28T11:01:29.420Z,33.50
2018-08-28T11:02:33.808Z,33.50
2018-08-28T11:03:37.926Z,33.40
2018-08-28T11:04:42.123Z,33.40
2018-08-28T11:05:46.278Z,33.40
2018-08-28T11:06:50.780Z,33.50
2018-08-28T11:07:54.970Z,33.80
2018-08-28T11:08:59.161Z,34.00
2018-08-28T11:10:03.449Z,34.40
2018-08-28T11:11:07.569Z,34.70
2018-08-28T11:12:11.676Z,34.90
2018-08-28T11:13:15.784Z,35.20
2018-08-28T11:14:19.959Z,35.30
2018-08-28T11:15:24.106Z,35.40
2018-08-28T11:16:28.333Z,35.60
2018-08-28T11:17:32.620Z,35.70
2018-08-28T11:18:36.663Z,36.00
2018-08-28T11:19:41.167Z,36.20
2018-08-28T11:20:45.286Z,36.40
2018-08-28T11:21:49.350Z,36.80
2018-08-28T11:22:53.962Z,36.30
2018-08-28T11:23:58.042Z,36.20
2018-08-28T11:25:02.208Z,36.20
2018-08-28T11:26:06.572Z,36.00
2018-08-28T11:27:10.753Z,35.60
2018-08-28T11:28:15.251Z,35.20
2018-08-28T11:29:19.376Z,35.10
2018-08-28T11:30:23.537Z,35.00
2018-08-28T11:31:27.729Z,34.90
2018-08-28T11:32:31.760Z,34.90
2018-08-28T11:33:35.867Z,35.00
2018-08-28T11:34:40.014Z,34.90
2018-08-28T11:35:44.136Z,35.00
2018-08-28T11:36:48.347Z,34.80
2018-08-28T11:37:52.429Z,34.60
2018-08-28T11:38:56.562Z,34.60
2018-08-28T11:40:00.882Z,35.10
2018-08-28T11:41:05.084Z,34.40
2018-08-28T11:42:09.169Z,34.20
2018-08-28T11:43:13.335Z,34.20
2018-08-28T11:44:17.577Z,34.70
2018-08-28T11:45:21.690Z,33.90
2018-08-28T11:47:29.552Z,32.80
2018-08-28T11:48:34.481Z,33.40
2018-08-28T11:49:38.558Z,33.10
2018-08-28T11:50:42.636Z,33.10
2018-08-28T11:51:46.826Z,33.60
2018-08-28T11:52:50.984Z,32.80
2018-08-28T11:53:55.072Z,32.50
2018-08-28T11:54:59.223Z,32.40
2018-08-28T11:56:03.466Z,32.20
2018-08-28T11:57:07.611Z,32.10
2018-08-28T11:58:12.178Z,32.00
2018-08-28T11:59:16.256Z,31.70
2018-08-28T12:00:20.372Z,31.40
2018-08-28T12:01:24.969Z,31.20
2018-08-28T12:02:29.278Z,30.80
2018-08-28T12:03:33.356Z,30.50
2018-08-28T12:04:37.703Z,30.30
2018-08-28T12:05:43.763Z,30.10
2018-08-28T12:06:47.899Z,30.10
2018-08-28T12:07:52.258Z,30.10
2018-08-28T12:08:57.163Z,30.80
2018-08-28T12:10:01.298Z,30.00
2018-08-28T12:11:05.435Z,29.90
2018-08-28T12:12:09.557Z,29.70
2018-08-28T12:13:13.842Z,29.60
2018-08-28T12:14:17.793Z,29.50
2018-08-28T12:15:21.996Z,29.30
2018-08-28T12:16:26.048Z,29.70
2018-08-28T12:17:30.304Z,29.20
2018-08-28T12:18:34.539Z,29.30
2018-08-28T12:19:38.672Z,29.40
2018-08-28T12:20:42.921Z,29.50
2018-08-28T12:21:46.976Z,29.60
2018-08-28T12:22:54.081Z,29.70
2018-08-28T12:23:58.185Z,29.80
2018-08-28T12:25:02.357Z,29.90
2018-08-28T12:26:06.558Z,30.10
2018-08-28T12:27:10.714Z,30.20
2018-08-28T12:28:14.889Z,30.30
2018-08-28T12:29:19.151Z,30.50
2018-08-28T12:30:23.240Z,30.30
2018-08-28T12:31:27.457Z,30.20
2018-08-28T12:32:31.838Z,30.20
2018-08-28T12:33:35.952Z,30.00
2018-08-28T12:34:41.159Z,29.90
2018-08-28T12:35:45.290Z,30.10
2018-08-28T12:36:49.629Z,29.70
2018-08-28T12:37:53.807Z,29.80
2018-08-28T12:38:58.159Z,29.70
2018-08-28T12:40:02.267Z,29.50
2018-08-28T12:41:06.514Z,30.00
2018-08-28T12:42:10.612Z,29.50
2018-08-28T12:43:14.734Z,29.40
2018-08-28T12:44:18.825Z,29.30
2018-08-28T12:45:22.950Z,29.30
2018-08-28T12:46:27.021Z,29.00
2018-08-28T12:47:31.241Z,29.30
2018-08-28T12:48:35.302Z,29.20
2018-08-28T12:49:39.411Z,29.10
2018-08-28T12:50:43.527Z,28.90
2018-08-28T12:51:47.694Z,28.80
2018-08-28T12:52:51.977Z,28.80
2018-08-28T12:53:56.137Z,28.90
2018-08-28T12:55:00.334Z,28.80
2018-08-28T12:56:04.338Z,28.70
2018-08-28T12:57:08.484Z,28.70
2018-08-28T12:58:12.500Z,28.60
2018-08-28T12:59:16.885Z,28.50
2018-08-28T13:00:21.022Z,28.40
2018-08-28T13:01:25.063Z,28.50
2018-08-28T13:02:29.361Z,28.40
2018-08-28T13:03:33.324Z,28.20
2018-08-28T13:04:37.450Z,28.00
2018-08-28T13:05:41.704Z,27.70
2018-08-28T13:06:45.808Z,27.70
2018-08-28T13:07:50.115Z,27.70
2018-08-28T13:08:56.887Z,27.80
2018-08-28T13:10:01.101Z,27.60
2018-08-28T13:11:05.351Z,27.40
2018-08-28T13:12:09.914Z,27.20
2018-08-28T13:13:13.977Z,27.10
2018-08-28T13:14:18.113Z,27.00
2018-08-28T13:15:22.493Z,27.00
2018-08-28T13:16:26.692Z,27.00
2018-08-28T13:17:30.790Z,27.00
2018-08-28T13:18:35.363Z,26.90
2018-08-28T13:19:39.585Z,27.00
2018-08-28T13:20:43.827Z,27.10
2018-08-28T13:21:48.241Z,27.10
2018-08-28T13:22:52.341Z,27.10
2018-08-28T13:23:56.922Z,27.20
2018-08-28T13:25:00.976Z,27.30
2018-08-28T13:26:05.381Z,27.30
2018-08-28T13:27:09.347Z,27.40
2018-08-28T13:28:14.350Z,27.50
2018-08-28T13:29:18.625Z,27.60
2018-08-28T13:30:22.769Z,27.70
2018-08-28T13:31:26.839Z,27.80
2018-08-28T13:32:30.975Z,28.00
2018-08-28T13:33:35.365Z,28.10
2018-08-28T13:34:39.553Z,28.20
2018-08-28T13:35:43.697Z,28.20
2018-08-28T13:36:47.872Z,27.80
2018-08-28T13:37:52.477Z,28.40
2018-08-28T13:38:56.860Z,28.60
2018-08-28T13:40:00.984Z,28.90
2018-08-28T13:41:05.324Z,29.00
2018-08-28T13:42:09.376Z,29.30
2018-08-28T13:43:14.348Z,29.80
2018-08-28T13:44:18.695Z,30.00
2018-08-28T13:45:22.837Z,30.40
2018-08-28T13:46:27.256Z,30.70
2018-08-28T13:47:31.552Z,31.10
2018-08-28T13:48:35.671Z,31.30
2018-08-28T13:49:39.890Z,31.60